Country
Station

 

Weather  for  Blackpool Airport  -  United Kingdom    United Kingdom

  
12 °C (54 °F)
    
 
 

Current METAR for Blackpool Airport is :

EGNH 161850Z 11010KT 9000 OVC016 12/10 Q1025

 

This is a report for Blackpool Airport - United Kingdom.
 
The report was made 12 minutes ago, at 18:50 UTC .
The wind was blowing at a speed of 5.1 meters per second (11.5 miles per hour) from east/southeast (110°).
 
The temperature was 12 °C (54 °F), with a dew-point at 10 °C (50 °F).
The atmospheric pressure was 1025 hPa (30.27 inHg).
The relative humidity was 87.6%.
 
The sky was overcast from a height of 488 meter (1600 feet)
 
The overall visibility was 9.0 kilometers (5.6 miles).
 

 
 
 
 

Country :   A   B   C   D   E   F   G   H   I   J   K   L   M   N   O   P   Q   R   S   T   U   V   W   Y   Z

 

Site Info  |  Disclaimer  |  Credits  |  Privacy
Contact us  |  Add to favorites
© 2013-2018 METARs - All rights reserved